Lamar, Colorado
Current Conditions -  °F | °C
As of 11:53 PM on Saturday 22 Nov 2014 (Local Time) from KLAA Reporting Station
Clear Clear  
Wind Chill: 36°   Ceiling: Unl
Heat Index: 41°   Visibility: 10mi
Dew Point: 28°   Wind: 8mph
Humidity: 60%   Direction: 260°W
Pressure: 29.47"   Gusts: NA
Location:  38.09°N, 102.61°W
Report Text: KLAA 230653Z AUTO 26007KT 10SM CLR 05/M02 A2947 RMK AO2 SLP957 T00501022 402001061
Loading
Personal Weather Stations






























Interactive Weather Map New forecast layout! Learn more

10-Day Weather Forecast

Advertisements
Track Severe Weather on mobile